Time;durP1;ratioP1;P1;durP2;ratioP2;P2;SDS_P1;SDS_P2;PMS_P1;PMS_P2;Temp;Humidity;BMP_temperature;BMP_pressure;BME280_temperature;BME280_humidity;BME280_pressure;Samples;Min_cycle;Max_cycle;Signal;HPM_P1;HPM_P2
2022/11/06 06:07:13;;;;;;;29.98;6.78;;;4.10;99.90;;;;;;10210261;28;20505;-75
2022/11/06 06:12:15;;;;;;;49.90;6.95;;;4.10;99.90;;;;;;10226692;29;20307;-74
2022/11/06 06:17:17;;;;;;;20.92;6.97;;;4.00;99.90;;;;;;10215163;29;20103;-76
2022/11/06 06:22:21;;;;;;;11.45;6.70;;;4.00;99.90;;;;;;10224940;29;20456;-76
2022/11/06 06:27:24;;;;;;;25.15;6.00;;;4.00;99.90;;;;;;10212018;29;20138;-76
2022/11/06 06:32:26;;;;;;;11.45;5.30;;;4.20;99.90;;;;;;10222988;29;20096;-78
2022/11/06 06:37:29;;;;;;;8.70;5.60;;;4.20;99.90;;;;;;10240243;29;20064;-75
2022/11/06 06:42:32;;;;;;;9.07;5.00;;;4.30;99.90;;;;;;10218852;29;20720;-75
2022/11/06 06:47:33;;;;;;;10.27;5.00;;;4.40;99.90;;;;;;10215523;29;20076;-76
2022/11/06 06:52:37;;;;;;;6.88;4.88;;;4.50;99.90;;;;;;10228728;29;20092;-75
2022/11/06 06:57:38;;;;;;;8.30;4.65;;;4.50;99.90;;;;;;10215423;29;20055;-76
2022/11/06 07:02:40;;;;;;;11.40;4.97;;;4.50;99.90;;;;;;10227850;29;20062;-75
2022/11/06 07:07:44;;;;;;;5.88;4.50;;;4.40;99.90;;;;;;10238055;29;20047;-77
2022/11/06 07:12:45;;;;;;;6.95;4.78;;;4.50;99.90;;;;;;10253240;29;20134;-76
2022/11/06 07:17:47;;;;;;;7.45;4.97;;;4.50;99.90;;;;;;10270883;28;20461;-76
2022/11/06 07:22:51;;;;;;;8.98;5.30;;;4.60;99.90;;;;;;10252848;29;20098;-76
2022/11/06 07:27:52;;;;;;;7.03;4.65;;;4.70;99.90;;;;;;10248666;29;20048;-76
2022/11/06 07:32:54;;;;;;;9.73;5.28;;;4.60;99.90;;;;;;10219765;29;20048;-75
2022/11/06 07:37:58;;;;;;;8.82;5.50;;;4.60;99.90;;;;;;10218589;29;20103;-75
2022/11/06 07:43:04;;;;;;;12.43;5.55;;;4.70;99.90;;;;;;10249919;28;20047;-75
2022/11/06 07:48:06;;;;;;;8.75;5.32;;;4.70;99.90;;;;;;10241353;29;20457;-77
2022/11/06 07:53:10;;;;;;;10.18;5.88;;;4.70;99.90;;;;;;10235311;29;20540;-75
2022/11/06 07:58:11;;;;;;;8.05;5.65;;;4.80;99.90;;;;;;10223123;28;20473;-76
2022/11/06 08:03:13;;;;;;;8.40;5.80;;;4.80;99.90;;;;;;10253544;29;20126;-76
2022/11/06 08:08:17;;;;;;;8.30;5.13;;;4.90;99.90;;;;;;10248500;29;20063;-75
2022/11/06 08:13:19;;;;;;;11.85;6.05;;;4.60;99.90;;;;;;10211542;29;20059;-75
2022/11/06 08:18:21;;;;;;;10.07;7.03;;;4.90;99.90;;;;;;10219405;29;20090;-75
2022/11/06 08:23:25;;;;;;;12.05;7.32;;;4.50;99.90;;;;;;10221157;29;20114;-74
2022/11/06 08:28:28;;;;;;;52.30;8.75;;;4.80;99.90;;;;;;10214790;29;20059;-75
2022/11/06 08:33:30;;;;;;;94.03;9.30;;;4.90;99.90;;;;;;10226772;29;20063;-74
2022/11/06 08:38:33;;;;;;;42.65;8.93;;;4.90;99.90;;;;;;10269059;29;20493;-75
2022/11/06 08:43:36;;;;;;;115.95;12.55;;;4.80;99.90;;;;;;10236162;29;20074;-74
2022/11/06 08:48:38;;;;;;;100.13;10.70;;;4.70;99.90;;;;;;10249718;29;20444;-75
2022/11/06 08:53:41;;;;;;;73.00;8.90;;;4.80;99.90;;;;;;10247612;29;20047;-76
2022/11/06 08:58:43;;;;;;;140.07;9.80;;;4.80;99.90;;;;;;10227099;28;20132;-75
2022/11/06 09:03:45;;;;;;;43.38;7.93;;;4.60;99.90;;;;;;10217498;29;20099;-75
2022/11/06 09:08:48;;;;;;;31.27;8.38;;;4.80;99.90;;;;;;10210059;29;20401;-75
2022/11/06 09:13:50;;;;;;;41.58;8.68;;;5.00;99.90;;;;;;10239179;28;20102;-78
2022/11/06 09:18:55;;;;;;;66.82;9.40;;;5.00;99.90;;;;;;10239374;28;20142;-76
2022/11/06 09:23:58;;;;;;;33.22;8.35;;;5.00;99.90;;;;;;10211958;29;20051;-74
2022/11/06 09:29:00;;;;;;;44.35;8.45;;;5.30;99.90;;;;;;10225063;28;20213;-75
2022/11/06 09:34:02;;;;;;;19.92;8.43;;;5.30;99.90;;;;;;10215631;29;20079;-77
2022/11/06 09:39:05;;;;;;;27.45;9.27;;;5.50;99.90;;;;;;10219844;29;20047;-76
2022/11/06 09:44:26;;;;;;;12.48;7.30;;;5.60;99.90;;;;;;10234354;29;20183;-74
2022/11/06 09:49:35;;;;;;;20.67;7.50;;;5.90;99.90;;;;;;10190786;29;20070;-73
2022/11/06 09:54:47;;;;;;;12.07;7.65;;;6.10;99.90;;;;;;10189697;29;20052;-77
2022/11/06 09:59:50;;;;;;;13.55;7.18;;;6.00;99.90;;;;;;10209596;29;20504;-75
2022/11/06 10:05:01;;;;;;;9.93;6.65;;;6.20;99.90;;;;;;10222143;28;20088;-74
2022/11/06 10:10:11;;;;;;;9.38;6.38;;;6.50;99.90;;;;;;10249524;28;20519;-74
2022/11/06 10:15:22;;;;;;;10.45;7.45;;;6.80;99.90;;;;;;10230966;28;20437;-76
2022/11/06 10:20:31;;;;;;;13.07;8.65;;;6.90;99.90;;;;;;10241236;29;20083;-76
2022/11/06 10:25:46;;;;;;;29.65;11.68;;;7.10;99.90;;;;;;10249064;29;20327;-78
2022/11/06 10:31:03;;;;;;;12.73;8.85;;;7.20;99.90;;;;;;10257546;28;20086;-73
2022/11/06 10:36:12;;;;;;;14.43;9.63;;;7.30;99.90;;;;;;10251963;28;20039;-73
2022/11/06 10:41:23;;;;;;;12.43;7.97;;;7.50;99.90;;;;;;10263015;28;20101;-75
2022/11/06 10:46:33;;;;;;;11.73;8.35;;;7.60;99.90;;;;;;10257515;28;20075;-76
2022/11/06 10:52:03;;;;;;;10.60;7.70;;;7.70;99.90;;;;;;10254648;28;20178;-76
2022/11/06 10:57:25;;;;;;;10.55;8.07;;;7.90;99.90;;;;;;10231646;29;20133;-75
2022/11/06 11:02:34;;;;;;;12.43;8.63;;;8.10;99.90;;;;;;10279762;28;20456;-76
2022/11/06 11:07:36;;;;;;;10.50;7.20;;;8.00;99.90;;;;;;10218251;29;20082;-75
2022/11/06 11:12:39;;;;;;;11.45;7.88;;;8.30;99.90;;;;;;10251063;29;20063;-76
2022/11/06 11:17:42;;;;;;;11.70;8.82;;;8.40;99.90;;;;;;10257237;28;20051;-75
2022/11/06 11:22:44;;;;;;;13.98;9.32;;;8.30;99.90;;;;;;10267336;28;20074;-76
2022/11/06 11:27:47;;;;;;;13.38;9.27;;;8.40;99.90;;;;;;10279081;28;20051;-75
2022/11/06 11:32:50;;;;;;;11.77;8.30;;;8.50;99.90;;;;;;10243665;28;20080;-76
2022/11/06 11:37:52;;;;;;;12.80;8.63;;;8.80;99.90;;;;;;10249610;28;20043;-76
2022/11/06 11:43:17;;;;;;;11.90;8.05;;;9.10;99.90;;;;;;10254524;28;20119;-76
2022/11/06 11:48:19;;;;;;;8.90;6.60;;;9.20;99.90;;;;;;10247561;28;20075;-76
2022/11/06 11:53:22;;;;;;;10.10;6.97;;;9.40;99.90;;;;;;10251767;28;20051;-78
2022/11/06 11:58:28;;;;;;;10.43;6.82;;;9.70;99.90;;;;;;10235498;29;20083;-76
2022/11/06 12:03:44;;;;;;;9.77;6.55;;;9.80;99.90;;;;;;10250568;28;20441;-76
2022/11/06 12:08:53;;;;;;;9.93;6.60;;;10.10;99.90;;;;;;10247554;29;20082;-76
2022/11/06 12:14:26;;;;;;;9.57;6.45;;;10.50;99.90;;;;;;10256216;28;20054;-75
2022/11/06 12:19:32;;;;;;;9.95;6.50;;;10.80;99.90;;;;;;10254956;28;20047;-76
2022/11/06 12:24:43;;;;;;;9.50;6.60;;;11.10;99.90;;;;;;10223768;28;20056;-75
2022/11/06 12:29:51;;;;;;;9.63;6.88;;;11.50;99.90;;;;;;10236778;28;20170;-74
2022/11/06 12:35:05;;;;;;;8.97;6.40;;;11.80;99.90;;;;;;10236476;28;20054;-74
2022/11/06 12:40:19;;;;;;;8.88;5.88;;;11.90;99.90;;;;;;10241670;28;20090;-76
2022/11/06 12:45:34;;;;;;;9.52;5.53;;;12.30;99.90;;;;;;10234080;29;20054;-74
2022/11/06 12:50:41;;;;;;;7.10;5.00;;;12.70;99.90;;;;;;10241067;29;20051;-74
2022/11/06 12:55:52;;;;;;;7.47;5.25;;;12.80;99.90;;;;;;10259129;28;20068;-75
2022/11/06 13:01:06;;;;;;;10.75;7.35;;;13.00;99.90;;;;;;10254129;28;20058;-75
2022/11/06 13:06:16;;;;;;;10.10;6.85;;;13.20;99.90;;;;;;10255898;28;20055;-74
2022/11/06 13:11:31;;;;;;;16.40;12.75;;;13.40;99.90;;;;;;10250568;28;20079;-74
2022/11/06 13:16:42;;;;;;;7.68;5.63;;;13.70;99.90;;;;;;10255816;28;20050;-76
2022/11/06 13:22:12;;;;;;;8.15;5.20;;;14.00;98.70;;;;;;10296840;28;20070;-75
2022/11/06 13:27:25;;;;;;;7.85;5.32;;;14.90;97.80;;;;;;10281123;28;20055;-73
2022/11/06 13:32:33;;;;;;;7.03;5.10;;;15.20;96.80;;;;;;10261524;29;20109;-76
2022/11/06 13:37:42;;;;;;;7.28;5.18;;;15.00;96.80;;;;;;10253972;28;20485;-73
2022/11/06 13:42:54;;;;;;;7.93;5.30;;;14.50;96.80;;;;;;10243852;29;20138;-73
2022/11/06 13:48:10;;;;;;;7.30;4.78;;;13.90;97.70;;;;;;10246462;28;20054;-75
2022/11/06 13:53:24;;;;;;;57.75;31.52;;;13.60;98.00;;;;;;10257535;28;20047;-75
2022/11/06 13:59:05;;;;;;;8.25;5.60;;;13.20;98.50;;;;;;10264274;28;20413;-75
2022/11/06 14:04:47;;;;;;;8.90;5.60;;;12.90;99.40;;;;;;10239703;28;20771;-74
2022/11/06 14:09:49;;;;;;;7.97;5.32;;;12.70;99.70;;;;;;10246271;28;20063;-74
2022/11/06 14:15:16;;;;;;;7.47;5.15;;;12.70;99.90;;;;;;10253105;28;20051;-74
2022/11/06 14:20:34;;;;;;;6.30;4.18;;;12.60;99.90;;;;;;10249914;29;20489;-75
2022/11/06 14:25:46;;;;;;;8.15;4.25;;;12.40;99.90;;;;;;10245010;29;20083;-76
2022/11/06 14:30:48;;;;;;;7.78;4.70;;;12.30;99.90;;;;;;10234191;28;20051;-75
2022/11/06 14:35:52;;;;;;;11.25;5.55;;;12.20;99.90;;;;;;10246775;28;20517;-75
2022/11/06 14:40:55;;;;;;;7.90;4.97;;;12.10;99.90;;;;;;10236170;28;20512;-75
2022/11/06 14:46:03;;;;;;;7.25;4.25;;;12.10;99.90;;;;;;10252768;28;20062;-77
2022/11/06 14:51:10;;;;;;;7.07;4.40;;;12.00;99.90;;;;;;10218051;28;20051;-75
2022/11/06 14:56:20;;;;;;;8.95;4.95;;;11.90;99.90;;;;;;10254956;28;20115;-75
2022/11/06 15:01:28;;;;;;;5.93;3.40;;;11.80;99.90;;;;;;10266704;28;20106;-74
2022/11/06 15:06:44;;;;;;;4.80;2.95;;;11.90;99.90;;;;;;10257958;28;20532;-76
2022/11/06 15:11:59;;;;;;;4.93;2.50;;;11.70;99.30;;;;;;10246430;29;20051;-74
2022/11/06 15:17:05;;;;;;;4.97;3.00;;;11.50;99.10;;;;;;10226524;28;20039;-74
2022/11/06 15:22:18;;;;;;;4.95;2.85;;;11.50;98.50;;;;;;10240580;28;20059;-74
2022/11/06 15:27:25;;;;;;;5.43;3.20;;;11.30;98.40;;;;;;10239254;28;20135;-75
2022/11/06 15:32:32;;;;;;;4.45;2.97;;;11.30;97.80;;;;;;10229175;28;20114;-75
2022/11/06 15:37:42;;;;;;;5.70;2.70;;;11.20;97.30;;;;;;10218523;28;20464;-73
2022/11/06 15:42:46;;;;;;;4.40;3.03;;;11.20;97.60;;;;;;10261882;28;20145;-74
2022/11/06 15:47:55;;;;;;;5.40;3.47;;;11.10;97.70;;;;;;10244366;28;20061;-74
2022/11/06 15:53:20;;;;;;;5.65;3.55;;;11.00;98.00;;;;;;10254277;28;20051;-74
2022/11/06 15:58:30;;;;;;;6.45;3.50;;;10.80;98.70;;;;;;10250658;28;20118;-75
2022/11/06 16:03:43;;;;;;;7.78;3.65;;;10.80;99.10;;;;;;10243178;28;20068;-75
2022/11/06 16:08:48;;;;;;;5.18;3.63;;;10.60;99.70;;;;;;10249455;28;20083;-74
2022/11/06 16:13:50;;;;;;;5.28;3.67;;;10.40;99.90;;;;;;10249299;28;20047;-73
2022/11/06 16:18:52;;;;;;;7.88;4.93;;;10.40;99.90;;;;;;10268701;28;20461;-76
2022/11/06 16:23:59;;;;;;;5.95;3.50;;;10.00;99.90;;;;;;10277260;28;20055;-74
2022/11/06 16:29:07;;;;;;;5.65;3.50;;;10.10;99.90;;;;;;10277711;28;20137;-74
2022/11/06 16:34:20;;;;;;;;;;;10.00;99.90;;;;;;10281972;28;20050;-76
2022/11/06 16:39:45;;;;;;;5.28;3.55;;;10.10;99.90;;;;;;10260053;28;20414;-74
2022/11/06 16:44:48;;;;;;;5.40;3.45;;;10.10;99.90;;;;;;10261117;28;20047;-73
2022/11/06 16:49:53;;;;;;;4.40;3.00;;;10.10;99.90;;;;;;10286400;28;20130;-76
2022/11/06 16:55:00;;;;;;;4.95;3.08;;;10.10;99.90;;;;;;10288677;28;20055;-76
2022/11/06 17:00:07;;;;;;;4.70;2.95;;;10.00;99.90;;;;;;10286486;28;20484;-76
2022/11/06 17:05:14;;;;;;;5.22;3.00;;;10.10;99.90;;;;;;10213095;28;20051;-73
2022/11/06 17:10:38;;;;;;;5.50;2.65;;;10.10;99.90;;;;;;10213787;29;20055;-76
2022/11/06 17:15:41;;;;;;;5.07;2.97;;;10.10;99.90;;;;;;10212653;29;20081;-75
2022/11/06 17:20:50;;;;;;;5.28;2.92;;;10.10;99.90;;;;;;10213212;29;20051;-76
2022/11/06 17:25:56;;;;;;;;;;;10.10;99.80;;;;;;10213942;29;20044;-75
2022/11/06 17:30:58;;;;;;;10.32;6.60;;;10.10;99.90;;;;;;10224862;29;19927;-76
2022/11/06 17:36:00;;;;;;;10.43;6.30;;;10.00;99.90;;;;;;10223898;29;20059;-76
2022/11/06 17:41:03;;;;;;;5.70;3.00;;;10.00;99.90;;;;;;10229500;29;20548;-74
2022/11/06 17:46:05;;;;;;;5.20;2.55;;;10.10;99.90;;;;;;10205196;29;20083;-76
2022/11/06 17:56:28;;;;;;;5.82;3.15;;;9.90;99.90;;;;;;10221181;29;20051;-77
2022/11/06 18:01:30;;;;;;;5.50;3.20;;;10.00;99.90;;;;;;10240696;29;20485;-75
2022/11/06 18:06:32;;;;;;;4.50;2.80;;;10.10;99.90;;;;;;10217076;29;20524;-76
2022/11/06 18:11:35;;;;;;;5.03;3.30;;;10.10;99.90;;;;;;10202336;29;21039;-76
2022/11/06 18:16:39;;;;;;;6.35;3.67;;;9.90;99.90;;;;;;10207579;29;20048;-76
2022/11/06 18:21:41;;;;;;;5.22;3.10;;;9.90;99.90;;;;;;10227126;29;20091;-76
2022/11/06 18:26:44;;;;;;;4.53;2.90;;;9.70;99.90;;;;;;10212240;29;20422;-76
2022/11/06 18:31:46;;;;;;;27.65;12.90;;;9.80;99.90;;;;;;10213346;29;20051;-75
2022/11/06 18:36:50;;;;;;;7.38;4.38;;;9.70;99.90;;;;;;10247059;29;20055;-76
2022/11/06 18:41:57;;;;;;;7.63;4.90;;;9.50;99.90;;;;;;10225479;29;20056;-75
2022/11/06 18:47:03;;;;;;;8.35;4.85;;;9.60;99.90;;;;;;10233715;29;20048;-75
2022/11/06 18:52:05;;;;;;;8.52;5.53;;;9.60;99.90;;;;;;10219523;29;20066;-76
2022/11/06 18:57:09;;;;;;;8.20;4.90;;;9.70;99.90;;;;;;10216336;29;20159;-77
2022/11/06 19:02:10;;;;;;;6.05;4.07;;;9.70;99.90;;;;;;10229538;29;20059;-76
2022/11/06 19:07:14;;;;;;;6.97;3.92;;;9.80;99.90;;;;;;10288995;28;20051;-74
2022/11/06 19:12:18;;;;;;;7.82;4.68;;;9.80;99.90;;;;;;10283865;28;20055;-74
2022/11/06 19:17:20;;;;;;;6.53;3.47;;;9.80;99.90;;;;;;10269749;28;20070;-74
2022/11/06 19:22:22;;;;;;;14.30;7.55;;;9.80;99.90;;;;;;10276294;28;20231;-73
2022/11/06 19:27:25;;;;;;;5.97;3.67;;;9.90;99.90;;;;;;10288935;28;20532;-74
2022/11/06 19:32:27;;;;;;;5.55;3.30;;;10.00;99.90;;;;;;10266110;28;20662;-73
2022/11/06 19:37:31;;;;;;;6.80;3.88;;;10.00;99.90;;;;;;10265610;28;20084;-77
2022/11/06 19:42:34;;;;;;;6.72;4.40;;;9.90;99.90;;;;;;10258220;28;20054;-74
2022/11/06 19:47:38;;;;;;;6.15;4.07;;;9.90;99.90;;;;;;10281758;28;20047;-77
2022/11/06 19:52:39;;;;;;;6.63;4.25;;;9.90;99.90;;;;;;10271290;28;20049;-78
2022/11/06 19:57:43;;;;;;;7.40;4.65;;;10.00;99.90;;;;;;10291876;28;20523;-75
2022/11/06 20:02:48;;;;;;;9.40;5.78;;;10.00;99.90;;;;;;10272669;28;20066;-75
2022/11/06 20:07:50;;;;;;;9.60;6.05;;;10.00;99.90;;;;;;10216854;29;20104;-75
2022/11/06 20:12:53;;;;;;;8.13;5.18;;;9.90;99.90;;;;;;10225410;29;20074;-75
2022/11/06 20:17:55;;;;;;;6.55;4.30;;;9.90;99.90;;;;;;10225216;29;20485;-78
2022/11/06 20:22:57;;;;;;;6.50;4.15;;;9.90;99.90;;;;;;10248372;29;20114;-74
2022/11/06 20:28:01;;;;;;;7.75;4.03;;;10.00;99.90;;;;;;10252731;28;20047;-74
2022/11/06 20:33:02;;;;;;;5.45;3.63;;;10.00;99.90;;;;;;10249653;28;20110;-76
2022/11/06 20:38:04;;;;;;;6.30;3.83;;;10.00;99.90;;;;;;10251839;28;20078;-77
2022/11/06 20:43:09;;;;;;;6.43;3.65;;;10.00;99.90;;;;;;10249377;28;20055;-75
2022/11/06 20:48:11;;;;;;;5.07;3.08;;;10.10;99.30;;;;;;10251359;28;20055;-77
2022/11/06 20:53:13;;;;;;;5.35;3.25;;;10.00;98.80;;;;;;10245479;28;20110;-76
2022/11/06 20:58:16;;;;;;;5.32;3.08;;;10.10;98.50;;;;;;10248395;28;20808;-75
2022/11/06 21:03:18;;;;;;;7.35;3.63;;;10.20;98.00;;;;;;10256650;28;20464;-75
2022/11/06 21:08:20;;;;;;;5.63;2.70;;;10.30;97.80;;;;;;10276502;28;20076;-78
2022/11/06 21:13:23;;;;;;;4.13;2.25;;;10.20;97.40;;;;;;10268057;28;20110;-76
2022/11/06 21:18:25;;;;;;;3.97;1.95;;;10.40;97.60;;;;;;10286184;28;20047;-77
2022/11/06 21:23:27;;;;;;;4.32;2.60;;;10.40;97.70;;;;;;10264825;28;20079;-75
2022/11/06 21:28:32;;;;;;;5.10;1.85;;;10.50;97.90;;;;;;10253660;29;20098;-76
2022/11/06 21:33:34;;;;;;;3.20;1.58;;;10.50;98.10;;;;;;10270843;28;20051;-75
2022/11/06 21:38:36;;;;;;;3.33;1.30;;;10.60;98.30;;;;;;10286581;28;20051;-76
2022/11/06 21:43:40;;;;;;;3.58;1.40;;;10.70;98.50;;;;;;10279913;28;20055;-74
2022/11/06 21:48:42;;;;;;;3.88;1.30;;;10.70;98.60;;;;;;10267395;28;20054;-75
2022/11/06 21:59:08;;;;;;;3.70;1.70;;;10.80;98.80;;;;;;10252249;29;20047;-75
2022/11/06 22:04:11;;;;;;;3.70;1.48;;;10.80;98.80;;;;;;10275245;28;20051;-73
2022/11/06 22:09:14;;;;;;;3.30;1.63;;;10.80;99.00;;;;;;10288421;28;20051;-77
2022/11/06 22:14:17;;;;;;;4.05;1.50;;;10.80;99.10;;;;;;10260042;29;20098;-75
2022/11/06 22:19:19;;;;;;;3.72;1.42;;;10.80;99.20;;;;;;10263162;28;20086;-76
2022/11/06 22:24:21;;;;;;;2.90;1.40;;;10.80;99.30;;;;;;10282407;28;20050;-74
2022/11/06 22:29:24;;;;;;;3.40;1.60;;;10.80;99.30;;;;;;10296069;28;20055;-76
2022/11/06 22:34:26;;;;;;;3.58;1.50;;;10.80;99.40;;;;;;10258761;28;20068;-75
2022/11/06 22:39:28;;;;;;;3.78;1.70;;;10.80;99.60;;;;;;10258353;29;20067;-75
2022/11/06 22:44:33;;;;;;;3.08;1.38;;;10.80;99.80;;;;;;10258393;28;20184;-77
2022/11/06 22:49:35;;;;;;;2.85;1.27;;;10.80;99.90;;;;;;10263668;28;20514;-74
2022/11/06 22:54:37;;;;;;;3.38;1.35;;;10.80;99.90;;;;;;10292321;28;20059;-75
2022/11/06 22:59:40;;;;;;;3.30;1.30;;;10.90;99.90;;;;;;10298897;28;20047;-74
